Flight Track Log - Related Links

Times and Time Zones

All times are in EDT time to prevent confusion due to time zone crossing. See the ASQ5685 flight status page for this flight to view local times or setup timezone preferences in your user account.

Time Position Orientation Groundspeed Altitude Reporting Facility
EDT Latitude Longitude Course Direction KTS MPH feet Rate Location/Type
Sun 01:25:39 PM 33.6667 -84.5000 48° Northeast 216 249 2,900  Level Atlanta TRACON
Sun 01:26:39 PM 33.7000 -84.5667 301° West 279 321 5,600 2,700 Climbing Atlanta TRACON
Sun 01:27:00 PM 33.8541 -84.1696 73° East  Level Estimated
Sun 01:27:39 PM 33.7667 -84.5833 348° North 291 335 8,300  Level Atlanta TRACON
Sun 01:28:00 PM 33.9264 -84.0832 54° Northeast  Level Estimated
Sun 01:29:00 PM 33.9027 -83.9638 103° East  Level FlightAware Approximate
Sun 01:30:00 PM 33.9758 -83.8782 48° Northeast  Level Estimated
Sun 01:30:07 PM 33.8125 -84.3589 76° East 304 350 12,700  Level Atlanta Center
Sun 01:31:07 PM 33.8211 -84.2339 85° East 352 405 14,000 1,400 Climbing Atlanta Center
Sun 01:32:07 PM 33.8464 -84.1114 76° East 371 427 15,500 1,500 Climbing Atlanta Center
Sun 01:33:07 PM 33.8714 -83.9836 77° East 381 438 17,000 1,450 Climbing Atlanta Center
Sun 01:34:07 PM 33.8983 -83.8536 76° East 386 444 18,400 1,450 Climbing Atlanta Center
Sun 01:35:07 PM 33.9253 -83.7283 75° East 392 451 19,900 1,350 Climbing Atlanta Center
Sun 01:36:07 PM 33.9897 -83.6178 55° Northeast 387 445 21,100 1,200 Climbing Atlanta Center
Sun 01:37:07 PM 34.0561 -83.5147 52° Northeast 393 452 22,300 1,200 Climbing Atlanta Center
Sun 01:38:07 PM 34.1244 -83.4039 53° Northeast 400 460 23,500 1,100 Climbing Atlanta Center
Sun 01:39:07 PM 34.1947 -83.2878 54° Northeast 400 460 24,500 950 Climbing Atlanta Center
Sun 01:40:07 PM 34.2628 -83.1767 53° Northeast 405 466 25,400 850 Climbing Atlanta Center
Sun 01:41:07 PM 34.3372 -83.0678 50° Northeast 405 466 26,200 800 Climbing Atlanta Center
Sun 01:42:07 PM 34.4031 -82.9536 55° Northeast 416 479 27,000 800 Climbing Atlanta Center
Sun 01:43:07 PM 34.4750 -82.8394 53° Northeast 424 488 27,800 800 Climbing Atlanta Center
Sun 01:44:07 PM 34.5447 -82.7250 53° Northeast 419 482 28,600 800 Climbing Atlanta Center
Sun 01:45:07 PM 34.6144 -82.6103 54° Northeast 419 482 29,400 800 Climbing Atlanta Center
Sun 01:46:07 PM 34.6883 -82.4978 51° Northeast 419 482 30,200 800 Climbing Atlanta Center
Sun 01:47:07 PM 34.7578 -82.3853 53° Northeast 419 482 31,000 400 Climbing Atlanta Center
Sun 01:48:07 PM 34.8292 -82.2675 54° Northeast 419 482 31,000  Level Atlanta Center
Sun 01:49:07 PM 34.8983 -82.1519 54° Northeast 419 482 31,000  Level Atlanta Center
Sun 01:50:07 PM 34.9717 -82.0364 52° Northeast 419 482 31,000  Level Atlanta Center
Sun 01:51:07 PM 35.0406 -81.9181 55° Northeast 419 482 31,000  Level Atlanta Center
Sun 01:52:07 PM 35.1053 -81.7919 58° Northeast 425 489 31,000  Level Atlanta Center
Sun 01:53:07 PM 35.1697 -81.6708 57° Northeast 425 489 31,000  Level Atlanta Center
Sun 01:54:07 PM 35.2361 -81.5467 57° Northeast 425 489 31,000  Level Atlanta Center
Sun 01:55:07 PM 35.3003 -81.4228 58° Northeast 425 489 31,000  Level Atlanta Center
Sun 01:56:07 PM 35.3622 -81.2986 59° Northeast 425 489 31,000  Level Atlanta Center
Sun 01:57:07 PM 35.4261 -81.1739 58° Northeast 425 489 31,000  Level Atlanta Center
Sun 01:58:07 PM 35.4939 -81.0442 57° Northeast 433 498 31,000  Level Atlanta Center
Sun 01:59:07 PM 35.5597 -80.9217 57° Northeast 433 498 31,000  Level Atlanta Center
Sun 02:00:07 PM 35.6256 -80.7992 57° Northeast 433 498 31,000  Level Atlanta Center
Sun 02:01:07 PM 35.6908 -80.6714 58° Northeast 433 498 31,000  Level Atlanta Center
Sun 02:02:07 PM 35.7483 -80.5614 57° Northeast 433 498 31,000  Level Atlanta Center
Sun 02:03:07 PM 35.8133 -80.4331 58° Northeast 433 498 31,000  Level Atlanta Center
Sun 02:04:07 PM 35.8764 -80.3075 58° Northeast 434 499 31,000  Level Atlanta Center
Sun 02:06:13 PM 36.0103 -80.0497 57° Northeast 430 495 31,000  Level Washington Center
Sun 02:07:14 PM 36.0775 -79.9250 56° Northeast 430 495 31,000  Level Washington Center
Sun 02:08:11 PM 36.1444 -79.8053 55° Northeast 430 495 31,000  Level Washington Center
Sun 02:09:12 PM 36.2156 -79.6803 55° Northeast 435 501 31,000  Level Washington Center
Sun 02:10:13 PM 36.2911 -79.5425 56° Northeast 435 501 31,000 -295 Level Washington Center
Sun 02:11:14 PM 36.3553 -79.4347 54° Northeast 430 495 30,400 -661 Descending Washington Center
Sun 02:12:11 PM 36.4306 -79.2939 56° Northeast 436 502 29,700 -864 Descending Washington Center
Sun 02:13:12 PM 36.4967 -79.1756 55° Northeast 448 516 28,700 -1,180 Descending Washington Center
Sun 02:14:13 PM 36.5714 -79.0497 53° Northeast 448 516 27,300 -1,388 Descending Washington Center
Sun 02:15:13 PM 36.6419 -78.9208 56° Northeast 448 516 25,900 -1,169 Descending Washington Center
Sun 02:16:11 PM 36.7167 -78.7817 56° Northeast 448 516 25,000 -458 Descending Washington Center
Sun 02:17:11 PM 36.7844 -78.6572 56° Northeast 442 509 25,000  Level Washington Center
Sun 02:18:12 PM 36.8481 -78.5378 56° Northeast 424 488 25,000  Level Washington Center
Sun 02:19:13 PM 36.9133 -78.4261 54° Northeast 412 474 25,000  Level Washington Center
Sun 02:20:11 PM 36.9964 -78.3536 35° Northeast 399 459 25,000  Level Washington Center
Sun 02:21:12 PM 37.0897 -78.2842 31° Northeast 388 447 25,000 -198 Level Washington Center
Sun 02:22:12 PM 37.1853 -78.2119 31° Northeast 388 447 24,600 -793 Descending Washington Center
Sun 02:23:13 PM 37.2933 -78.1319 30° Northeast 405 466 23,400 -1,109 Descending Washington Center
Sun 02:24:11 PM 37.3950 -78.0517 32° Northeast 416 479 22,400 -706 Descending Washington Center
Sun 02:25:12 PM 37.4989 -77.9739 31° Northeast 421 484 22,000 -197 Descending Washington Center
Sun 02:26:13 PM 37.5983 -77.8958 32° Northeast 426 490 22,000 -650 Level Washington Center
Sun 02:27:12 PM 37.6958 -77.8253 30° Northeast 416 479 20,700 -1,866 Descending Washington Center
Sun 02:28:12 PM 37.7889 -77.7517 32° Northeast 404 465 18,300 -2,350 Descending Washington Center
Sun 02:29:12 PM 37.8797 -77.6808 32° Northeast 394 453 16,000 -2,213 Descending Washington Center
Sun 02:30:14 PM 37.9664 -77.6119 32° Northeast 382 440 13,800 -2,218 Descending Washington Center
Sun 02:31:11 PM 38.0508 -77.5511 30° Northeast 362 417 11,600 -1,932 Descending Washington Center
Sun 02:32:12 PM 38.1292 -77.4897 32° Northeast 347 399 10,000 -780 Descending Washington Center
Sun 02:33:14 PM 38.2008 -77.4361 30° Northeast 314 361 10,000 -101 Level Washington Center
Sun 02:34:11 PM 38.2744 -77.3928 25° Northeast 298 343 9,800 -712 Descending Washington Center
Sun 02:35:12 PM 38.3481 -77.3575 21° North 280 322 8,600 -1,300 Descending Washington Center
Sun 02:36:11 PM 38.4228 -77.3806 346° North 261 300 7,200 -1,388 Descending Washington Center
Sun 02:37:13 PM 38.4950 -77.4142 340° North 261 300 5,800 -1,328 Descending Washington Center
Sun 02:38:13 PM 38.5656 -77.4450 341° North 266 306 4,500 -908 Descending Washington Center
Sun 02:39:12 PM 38.6364 -77.4547 354° North 261 300 4,000 -252 Descending Washington Center
Sun 02:40:12 PM 38.7069 -77.4619 355° North 256 295 4,000 -200 Level Washington Center
Sun 02:41:12 PM 38.7758 -77.4664 357° North 256 295 3,600 -400 Descending Washington Center

Login

Don't have an account? Register now (free) for customized features, flight alerts, and more!